Time;durP1;ratioP1;P1;durP2;ratioP2;P2;SDS_P1;SDS_P2;PMS_P1;PMS_P2;Temp;Humidity;BMP_temperature;BMP_pressure;BME280_temperature;BME280_humidity;BME280_pressure;Samples;Min_cycle;Max_cycle;Signal;HPM_P1;HPM_P2
2022/06/12 00:00:59;;;;;;;6.58;4.47;;;;;;;16.71;99.18;98213.53;1837547;77;21018;-61
2022/06/12 00:03:27;;;;;;;8.58;4.22;;;;;;;16.70;99.21;98219.27;1849274;77;21109;-59
2022/06/12 00:05:56;;;;;;;6.40;3.85;;;;;;;16.69;99.23;98219.02;1849221;77;21485;-63
2022/06/12 00:08:24;;;;;;;5.80;3.92;;;;;;;16.67;99.48;98224.77;1840342;77;21502;-61
2022/06/12 00:10:52;;;;;;;6.17;4.50;;;;;;;16.67;99.61;98225.31;1833860;77;20927;-61
2022/06/12 00:13:23;;;;;;;4.58;4.17;;;;;;;16.67;99.65;98227.47;1840551;77;20833;-63
2022/06/12 00:15:50;;;;;;;5.80;4.00;;;;;;;16.67;99.69;98222.61;1847189;77;21226;-62
2022/06/12 00:18:18;;;;;;;5.22;3.80;;;;;;;16.64;99.79;98236.22;1849089;77;20861;-58
2022/06/12 00:20:46;;;;;;;7.70;4.25;;;;;;;16.63;100.00;98227.09;1849206;77;20883;-63
2022/06/12 00:23:15;;;;;;;6.35;4.55;;;;;;;16.60;100.00;98225.02;1844297;77;21408;-63
2022/06/12 00:25:43;;;;;;;4.67;4.22;;;;;;;16.60;100.00;98230.44;1847331;77;21379;-58
2022/06/12 00:28:09;;;;;;;4.65;4.15;;;;;;;16.58;99.99;98227.27;1844783;77;21553;-61
2022/06/12 00:30:36;;;;;;;11.05;3.90;;;;;;;16.56;99.90;98228.92;1846480;77;20869;-65
2022/06/12 00:33:03;;;;;;;6.60;4.25;;;;;;;16.55;99.80;98224.64;1837543;78;20955;-62
2022/06/12 00:35:33;;;;;;;5.97;4.58;;;;;;;16.54;99.90;98229.00;1836402;77;21593;-61
2022/06/12 00:38:00;;;;;;;5.08;3.90;;;;;;;16.54;99.86;98233.06;1847014;77;21461;-61
2022/06/12 00:40:27;;;;;;;8.78;4.12;;;;;;;16.51;99.85;98229.64;1844292;77;21107;-59
2022/06/12 00:42:57;;;;;;;5.28;3.70;;;;;;;16.49;99.97;98229.94;1844438;77;20912;-60
2022/06/12 00:45:41;;;;;;;5.35;4.55;;;;;;;16.46;100.00;98225.75;1844421;77;20931;-61
2022/06/12 00:48:22;;;;;;;8.50;4.25;;;;;;;16.44;100.00;98230.11;1849151;77;20884;-58
2022/06/12 00:51:03;;;;;;;5.83;4.00;;;;;;;16.40;100.00;98223.22;1849115;77;21001;-58
2022/06/12 00:53:50;;;;;;;4.37;3.98;;;;;;;16.39;100.00;98224.91;1839418;77;21997;-64
2022/06/12 00:56:22;;;;;;;4.87;4.05;;;;;;;16.38;100.00;98226.80;1851983;77;20868;-59
2022/06/12 00:58:52;;;;;;;6.90;4.20;;;;;;;16.35;100.00;98227.98;1839345;77;20875;-62
2022/06/12 01:01:24;;;;;;;6.72;4.53;;;;;;;16.31;100.00;98227.85;1838394;77;21415;-62
2022/06/12 01:06:37;;;;;;;6.45;4.40;;;;;;;16.29;100.00;98235.49;1857528;77;21108;-62
2022/06/12 01:09:12;;;;;;;5.80;4.05;;;;;;;16.26;100.00;98230.72;1849035;77;20959;-63
2022/06/12 01:11:41;;;;;;;5.22;4.08;;;;;;;16.26;100.00;98238.83;1847985;77;20923;-60
2022/06/12 01:14:11;;;;;;;6.92;4.70;;;;;;;16.22;100.00;98233.04;1844268;77;21579;-59
2022/06/12 01:16:45;;;;;;;6.35;4.28;;;;;;;16.20;100.00;98227.16;1849307;77;21445;-63
2022/06/12 01:19:08;;;;;;;4.47;4.08;;;;;;;16.20;100.00;98227.94;1839335;77;21197;-62
2022/06/12 01:21:57;;;;;;;6.50;3.72;;;;;;;16.19;100.00;98226.36;1837373;77;20937;-59
2022/06/12 01:25:03;;;;;;;4.83;4.10;;;;;;;16.16;100.00;98227.00;1833558;77;20959;-59
2022/06/12 01:28:00;;;;;;;8.08;4.90;;;;;;;16.09;100.00;98226.69;1851564;77;21090;-61
2022/06/12 01:30:48;;;;;;;10.85;4.22;;;;;;;16.04;100.00;98227.43;1822549;77;20907;-63
2022/06/12 01:33:32;;;;;;;5.75;4.37;;;;;;;15.99;100.00;98224.30;1837860;77;21083;-61
2022/06/12 01:36:21;;;;;;;5.37;3.80;;;;;;;15.97;100.00;98223.06;1836734;77;20887;-64
2022/06/12 01:39:29;;;;;;;4.87;4.10;;;;;;;15.96;100.00;98227.67;1858372;77;20895;-59
2022/06/12 01:42:12;;;;;;;6.03;4.72;;;;;;;15.95;100.00;98222.02;1847283;77;20991;-60
2022/06/12 01:45:14;;;;;;;9.83;4.65;;;;;;;15.93;100.00;98229.65;1848139;77;20936;-60
2022/06/12 01:47:46;;;;;;;5.90;4.50;;;;;;;15.92;100.00;98228.62;1842290;77;21285;-60
2022/06/12 01:50:21;;;;;;;5.87;4.58;;;;;;;15.89;100.00;98227.35;1843799;77;20959;-59
2022/06/12 01:53:33;;;;;;;5.67;4.70;;;;;;;15.91;100.00;98225.13;1840296;77;20953;-59
2022/06/12 01:56:07;;;;;;;5.80;4.95;;;;;;;15.90;100.00;98219.47;1844021;77;21094;-58
2022/06/12 01:58:46;;;;;;;4.92;4.45;;;;;;;15.86;100.00;98217.17;1834893;77;20955;-62
2022/06/12 02:01:30;;;;;;;6.00;4.40;;;;;;;15.86;100.00;98229.33;1847766;77;21125;-59
2022/06/12 02:04:20;;;;;;;5.03;4.53;;;;;;;15.86;100.00;98226.63;1842109;77;20833;-60
2022/06/12 02:07:19;;;;;;;4.92;4.42;;;;;;;15.85;100.00;98229.08;1852875;77;20900;-62
2022/06/12 02:10:27;;;;;;;9.45;5.12;;;;;;;15.83;100.00;98222.44;1851375;77;20884;-62
2022/06/12 02:15:54;;;;;;;5.47;4.42;;;;;;;15.81;100.00;98226.79;1890965;76;23932;-63
2022/06/12 02:18:33;;;;;;;;;;;;;;;15.73;100.00;98226.25;1864340;77;20883;-59
2022/06/12 02:21:11;;;;;;;4.87;4.42;;;;;;;15.73;100.00;98231.66;1861570;77;21112;-63
2022/06/12 02:23:52;;;;;;;5.67;4.55;;;;;;;15.72;100.00;98234.90;1861478;77;20977;-62
2022/06/12 02:26:23;;;;;;;5.62;4.30;;;;;;;15.73;100.00;98229.72;1791334;80;20914;-61
2022/06/12 02:28:57;;;;;;;5.33;4.33;;;;;;;15.77;100.00;98234.49;1823724;78;20920;-58
2022/06/12 02:31:29;;;;;;;7.05;4.50;;;;;;;15.80;100.00;98240.07;1790785;80;20899;-62
2022/06/12 02:33:59;;;;;;;5.20;4.80;;;;;;;15.83;100.00;98235.36;1823684;78;21099;-57
2022/06/12 02:36:33;;;;;;;8.20;4.53;;;;;;;15.85;100.00;98241.81;1791293;80;20860;-60
2022/06/12 02:39:05;;;;;;;4.53;4.10;;;;;;;15.87;100.00;98243.09;1822460;78;21461;-58
2022/06/12 02:41:44;;;;;;;4.60;4.15;;;;;;;15.91;100.00;98241.88;1791274;80;20868;-61
2022/06/12 02:44:24;;;;;;;6.12;4.70;;;;;;;15.92;100.00;98240.20;1824064;78;21496;-60
2022/06/12 02:47:06;;;;;;;5.97;4.58;;;;;;;15.95;100.00;98247.67;1791452;80;21136;-59
2022/06/12 02:49:34;;;;;;;5.97;3.95;;;;;;;15.94;100.00;98256.11;1823753;78;20907;-60
2022/06/12 02:52:23;;;;;;;6.83;3.77;;;;;;;15.96;99.91;98251.98;1791560;80;20895;-60
2022/06/12 02:55:04;;;;;;;4.90;4.20;;;;;;;15.98;99.71;98246.25;1822576;78;21019;-63
2022/06/12 02:57:45;;;;;;;6.58;4.45;;;;;;;15.96;99.46;98246.58;1791514;80;20877;-62
2022/06/12 03:00:20;;;;;;;5.72;4.55;;;;;;;15.99;99.42;98251.32;1782818;80;21238;-62
2022/06/12 03:03:25;;;;;;;6.87;4.28;;;;;;;16.00;99.19;98250.22;1791291;80;20978;-58
2022/06/12 03:05:57;;;;;;;7.05;4.25;;;;;;;16.00;99.09;98249.42;1823679;78;20864;-59
2022/06/12 03:08:37;;;;;;;5.33;4.22;;;;;;;16.02;98.85;98258.00;1791555;80;20899;-61
2022/06/12 03:11:18;;;;;;;7.62;4.65;;;;;;;16.04;98.70;98255.80;1809483;78;20926;-60
2022/06/12 03:13:45;;;;;;;6.58;4.65;;;;;;;16.08;98.54;98258.89;1791496;80;21037;-61
2022/06/12 03:16:25;;;;;;;5.17;4.67;;;;;;;16.13;98.36;98260.05;1801516;78;20869;-58
2022/06/12 03:19:14;;;;;;;4.78;4.12;;;;;;;16.17;98.02;98263.73;1839615;77;20847;-59
2022/06/12 03:22:09;;;;;;;12.37;4.42;;;;;;;16.20;97.80;98253.61;1838305;77;21470;-58
2022/06/12 03:24:57;;;;;;;6.17;4.47;;;;;;;16.24;97.70;98260.53;1849820;77;20895;-62
2022/06/12 03:27:48;;;;;;;4.87;4.47;;;;;;;16.23;97.34;98263.78;1849200;77;21255;-59
2022/06/12 03:30:21;;;;;;;4.95;4.45;;;;;;;16.25;97.13;98260.78;1772528;80;21019;-59
2022/06/12 03:33:12;;;;;;;6.37;4.58;;;;;;;16.26;97.03;98257.75;1839197;77;20962;-62
2022/06/12 03:36:05;;;;;;;5.80;4.42;;;;;;;16.27;96.99;98257.97;1842014;77;20923;-59
2022/06/12 03:38:44;;;;;;;4.92;4.42;;;;;;;16.30;97.02;98257.34;1849167;77;20912;-59
2022/06/12 03:41:21;;;;;;;5.08;4.45;;;;;;;16.33;96.88;98254.00;1849281;77;21654;-58
2022/06/12 03:44:19;;;;;;;6.53;4.25;;;;;;;16.35;96.72;98255.82;1849059;77;20916;-61
2022/06/12 03:47:03;;;;;;;5.42;4.05;;;;;;;16.38;96.50;98255.73;1844298;77;21426;-63
2022/06/12 03:49:48;;;;;;;6.60;4.75;;;;;;;16.40;96.05;98254.86;1849476;77;21415;-59
2022/06/12 03:52:23;;;;;;;6.65;5.12;;;;;;;16.36;95.96;98254.72;1777184;80;20945;-62
2022/06/12 03:57:50;;;;;;;6.03;4.42;;;;;;;16.33;95.77;98260.76;1809222;79;21804;-58
2022/06/12 03:57:56;;;;;;;6.03;4.25;;;;;;;16.31;95.66;98258.94;1773800;79;20900;-60
2022/06/12 04:00:34;;;;;;;5.62;4.67;;;;;;;16.31;95.81;98254.89;1799892;79;20930;-63
2022/06/12 04:03:21;;;;;;;6.37;4.47;;;;;;;16.31;95.68;98252.18;1765530;79;21004;-60
2022/06/12 04:05:58;;;;;;;8.15;4.92;;;;;;;16.33;95.67;98257.25;1844049;77;20924;-58
2022/06/12 04:08:30;;;;;;;9.40;4.72;;;;;;;16.36;95.24;98260.67;1844290;77;21122;-59
2022/06/12 04:10:58;;;;;;;7.00;4.70;;;;;;;16.36;95.17;98254.72;1844013;77;20930;-62
2022/06/12 04:13:25;;;;;;;7.00;4.87;;;;;;;16.37;94.98;98254.94;1845381;77;20825;-62
2022/06/12 04:16:01;;;;;;;5.72;4.60;;;;;;;16.39;95.22;98255.41;1839645;77;20923;-61
2022/06/12 04:18:28;;;;;;;7.10;4.70;;;;;;;16.43;95.12;98263.69;1849169;77;20916;-59
2022/06/12 04:21:18;;;;;;;7.08;4.28;;;;;;;16.44;95.01;98259.84;1799974;77;22031;-58
2022/06/12 04:23:53;;;;;;;6.70;4.75;;;;;;;16.49;95.00;98268.38;1775943;80;20944;-63
2022/06/12 04:26:37;;;;;;;5.53;4.70;;;;;;;16.54;94.83;98260.09;1766038;80;20932;-61
2022/06/12 04:29:12;;;;;;;5.65;4.85;;;;;;;16.56;94.42;98276.82;1845285;77;20919;-60
2022/06/12 04:31:43;;;;;;;5.08;4.58;;;;;;;16.62;94.71;98272.81;1776114;80;20939;-59
2022/06/12 04:34:22;;;;;;;5.58;4.20;;;;;;;16.66;94.49;98277.25;1805223;79;21127;-62
2022/06/12 04:36:57;;;;;;;7.67;4.50;;;;;;;16.73;94.46;98279.45;1810539;78;20892;-61
2022/06/12 04:39:37;;;;;;;4.80;4.40;;;;;;;16.78;94.14;98277.94;1835818;77;20960;-59
2022/06/12 04:42:05;;;;;;;5.87;4.60;;;;;;;16.81;93.76;98266.48;1847357;77;20876;-58
2022/06/12 04:44:31;;;;;;;7.03;4.90;;;;;;;16.83;93.15;98269.64;1840439;77;20974;-61
2022/06/12 04:46:59;;;;;;;5.35;4.15;;;;;;;16.85;93.17;98269.56;1844284;77;21668;-62
2022/06/12 04:49:29;;;;;;;6.95;4.15;;;;;;;16.90;92.84;98267.23;1841046;77;20880;-61
2022/06/12 04:51:57;;;;;;;5.42;4.03;;;;;;;16.94;92.59;98275.73;1835864;77;20899;-60
2022/06/12 04:54:25;;;;;;;4.67;4.28;;;;;;;16.96;92.63;98278.09;1835566;77;20904;-59
2022/06/12 04:56:53;;;;;;;5.15;4.10;;;;;;;17.02;92.51;98278.17;1833806;77;21411;-60
2022/06/12 04:59:20;;;;;;;4.10;3.52;;;;;;;17.11;92.32;98280.28;1844154;77;21108;-64
2022/06/12 05:01:48;;;;;;;4.97;3.92;;;;;;;17.17;91.77;98274.91;1838343;77;20943;-63
2022/06/12 05:04:15;;;;;;;5.53;4.22;;;;;;;17.23;92.06;98286.34;1846520;77;20864;-63
2022/06/12 05:06:42;;;;;;;7.33;4.17;;;;;;;17.27;91.58;98277.80;1833862;77;20908;-63
2022/06/12 05:09:09;;;;;;;5.67;4.15;;;;;;;17.35;91.57;98281.03;1836499;77;21647;-61
2022/06/12 05:11:37;;;;;;;4.15;3.75;;;;;;;17.39;90.96;98287.38;1843357;77;21564;-59
2022/06/12 05:14:05;;;;;;;6.58;3.72;;;;;;;17.44;91.14;98281.78;1835403;77;20887;-63
2022/06/12 05:16:42;;;;;;;4.95;3.98;;;;;;;17.52;90.82;98280.39;1849089;77;20900;-61
2022/06/12 05:19:13;;;;;;;4.12;3.67;;;;;;;17.61;90.94;98281.16;1834593;77;21055;-62
2022/06/12 05:21:40;;;;;;;6.28;3.77;;;;;;;17.67;90.47;98278.47;1834617;77;20919;-61
2022/06/12 05:24:08;;;;;;;4.50;3.42;;;;;;;17.73;90.17;98281.20;1834301;77;21094;-63
2022/06/12 05:26:36;;;;;;;3.98;3.55;;;;;;;17.75;88.85;98283.05;1854108;77;20856;-61
2022/06/12 05:29:05;;;;;;;6.45;3.98;;;;;;;17.74;88.68;98286.07;1842212;77;20900;-62
2022/06/12 05:31:32;;;;;;;3.72;3.40;;;;;;;17.76;88.25;98285.97;1849206;77;20872;-61
2022/06/12 05:33:58;;;;;;;3.67;3.20;;;;;;;17.82;88.77;98285.78;1847564;77;20931;-64
2022/06/12 05:36:25;;;;;;;4.80;3.17;;;;;;;17.92;88.95;98288.11;1834042;77;21410;-63
2022/06/12 05:38:52;;;;;;;4.67;3.30;;;;;;;17.99;89.19;98282.40;1848673;77;20852;-63
2022/06/12 05:41:19;;;;;;;5.17;3.67;;;;;;;18.10;89.09;98285.48;1848990;77;21037;-60
2022/06/12 05:43:45;;;;;;;5.10;3.80;;;;;;;18.17;88.17;98277.61;1846814;77;20884;-62
2022/06/12 05:46:13;;;;;;;5.40;3.77;;;;;;;18.18;86.77;98277.85;1833647;77;20892;-64
2022/06/12 05:48:44;;;;;;;5.58;3.45;;;;;;;18.16;86.72;98276.81;1833236;77;21238;-61
2022/06/12 05:51:13;;;;;;;4.60;3.00;;;;;;;18.17;86.65;98274.34;1831054;77;20959;-61
2022/06/12 05:53:39;;;;;;;4.42;3.35;;;;;;;18.20;86.86;98283.17;1833744;77;21426;-62
2022/06/12 05:56:10;;;;;;;4.45;3.40;;;;;;;18.28;87.09;98276.06;1849043;77;20919;-60
2022/06/12 05:58:37;;;;;;;5.05;3.27;;;;;;;18.32;86.86;98274.30;1849331;77;20935;-60
2022/06/12 06:01:08;;;;;;;5.55;3.10;;;;;;;18.33;86.28;98270.44;1839338;77;21057;-63
2022/06/12 06:03:35;;;;;;;5.47;3.58;;;;;;;18.31;85.98;98271.34;1837585;77;20864;-61
2022/06/12 06:06:01;;;;;;;6.45;3.37;;;;;;;18.34;86.45;98276.10;1835891;77;20889;-62
2022/06/12 06:08:28;;;;;;;3.87;3.47;;;;;;;18.40;86.07;98276.91;1837362;77;21553;-62
2022/06/12 06:10:56;;;;;;;3.22;2.90;;;;;;;18.46;85.70;98277.53;1849046;77;20864;-64
2022/06/12 06:13:23;;;;;;;4.17;3.37;;;;;;;18.54;85.86;98279.35;1848981;77;21114;-64
2022/06/12 06:15:50;;;;;;;5.33;3.40;;;;;;;18.66;85.96;98282.10;1839520;77;20895;-61
2022/06/12 06:18:18;;;;;;;5.35;3.45;;;;;;;18.76;85.63;98277.61;1848997;77;21533;-61
2022/06/12 06:20:47;;;;;;;3.70;3.12;;;;;;;18.85;84.50;98274.23;1837963;77;20869;-60
2022/06/12 06:23:14;;;;;;;3.95;3.55;;;;;;;18.95;84.75;98279.23;1842839;77;21383;-62
2022/06/12 06:25:41;;;;;;;4.40;3.27;;;;;;;19.07;84.50;98283.31;1846579;77;21898;-62
2022/06/12 06:28:08;;;;;;;3.62;3.02;;;;;;;19.15;84.15;98284.91;1836601;77;20871;-61
2022/06/12 06:30:37;;;;;;;4.70;3.62;;;;;;;19.19;83.50;98280.38;1840013;77;20982;-61
2022/06/12 06:33:04;;;;;;;4.95;3.10;;;;;;;19.22;83.35;98281.06;1834295;77;20883;-61
2022/06/12 06:35:31;;;;;;;5.17;3.40;;;;;;;19.32;83.61;98280.03;1843782;77;20902;-61
2022/06/12 06:37:58;;;;;;;4.60;3.02;;;;;;;19.43;83.91;98275.75;1849164;77;21104;-60
2022/06/12 06:40:26;;;;;;;3.83;2.90;;;;;;;19.57;83.26;98269.98;1841236;77;20869;-59
2022/06/12 06:42:54;;;;;;;3.90;3.40;;;;;;;19.61;82.66;98273.03;1846119;77;20903;-62
2022/06/12 06:48:09;;;;;;;4.72;2.72;;;;;;;19.69;81.57;98272.66;1834039;77;20983;-61
2022/06/12 06:50:36;;;;;;;3.52;2.77;;;;;;;19.72;80.18;98273.34;1842067;77;21905;-64
2022/06/12 06:53:04;;;;;;;3.67;2.70;;;;;;;19.71;78.96;98275.25;1848914;77;20833;-62
2022/06/12 06:55:31;;;;;;;8.23;3.08;;;;;;;19.72;78.75;98267.34;1844116;77;20904;-60
2022/06/12 06:57:58;;;;;;;6.08;2.90;;;;;;;19.78;78.02;98271.98;1844363;77;21492;-63
2022/06/12 07:00:29;;;;;;;3.92;2.80;;;;;;;19.89;78.71;98275.80;1837837;77;20899;-62
2022/06/12 07:02:56;;;;;;;4.53;3.10;;;;;;;20.13;79.21;98274.38;1772202;80;21214;-60
2022/06/12 07:05:22;;;;;;;3.80;3.02;;;;;;;20.33;77.80;98276.13;1809055;79;20873;-61
2022/06/12 07:07:50;;;;;;;4.53;2.80;;;;;;;20.42;76.73;98271.31;1766616;80;20947;-63
2022/06/12 07:10:21;;;;;;;2.72;2.47;;;;;;;20.51;76.96;98274.46;1794488;79;21431;-62
2022/06/12 07:12:49;;;;;;;3.92;2.50;;;;;;;20.62;76.63;98267.37;1804165;79;20939;-64
2022/06/12 07:15:15;;;;;;;3.15;2.30;;;;;;;20.76;76.07;98266.38;1761655;80;21910;-64
2022/06/12 07:17:44;;;;;;;2.83;2.58;;;;;;;20.86;74.92;98265.87;1808923;79;20914;-61
2022/06/12 07:20:12;;;;;;;3.35;2.72;;;;;;;20.89;74.47;98270.62;1777331;80;21423;-62
2022/06/12 07:22:39;;;;;;;3.37;2.40;;;;;;;20.93;73.91;98274.21;1803097;79;20957;-62
2022/06/12 07:25:08;;;;;;;2.62;2.42;;;;;;;21.04;73.99;98273.90;1804857;79;20865;-63
2022/06/12 07:27:35;;;;;;;3.95;2.42;;;;;;;21.10;72.92;98265.73;1767944;80;21151;-62
2022/06/12 07:30:02;;;;;;;2.75;2.40;;;;;;;21.15;72.78;98268.76;1806846;79;20909;-59
2022/06/12 07:32:29;;;;;;;4.33;2.52;;;;;;;21.16;71.61;98269.76;1777075;79;20865;-59
2022/06/12 07:34:56;;;;;;;2.65;2.22;;;;;;;21.14;71.39;98272.05;1808887;79;20932;-63
2022/06/12 07:37:23;;;;;;;2.72;2.20;;;;;;;21.05;68.51;98270.08;1762307;80;20918;-59
2022/06/12 07:39:49;;;;;;;3.05;2.05;;;;;;;21.07;69.79;98271.87;1796912;79;21234;-60
2022/06/12 07:42:16;;;;;;;3.30;2.22;;;;;;;21.18;69.92;98264.74;1764606;80;20856;-62
2022/06/12 07:44:43;;;;;;;4.67;2.30;;;;;;;21.36;70.20;98264.59;1804530;79;21391;-58
2022/06/12 07:47:10;;;;;;;2.83;2.05;;;;;;;21.56;70.14;98264.88;1763278;80;20919;-62
2022/06/12 07:49:37;;;;;;;6.30;2.05;;;;;;;21.70;69.62;98267.12;1794052;79;20921;-59
2022/06/12 07:52:06;;;;;;;2.10;1.90;;;;;;;21.83;68.88;98264.50;1835238;77;21172;-60
2022/06/12 07:54:33;;;;;;;2.98;2.20;;;;;;;21.90;67.32;98265.25;1842128;77;21044;-60
2022/06/12 07:57:00;;;;;;;2.17;1.98;;;;;;;21.89;64.89;98260.94;1842467;77;20958;-63
2022/06/12 07:59:27;;;;;;;4.90;2.15;;;;;;;21.86;66.26;98261.67;1831613;77;20946;-61
2022/06/12 08:01:54;;;;;;;3.67;2.25;;;;;;;21.94;65.89;98262.81;1838051;77;20872;-62
2022/06/12 08:04:22;;;;;;;3.70;2.22;;;;;;;21.96;64.82;98264.61;1849163;77;20868;-60
2022/06/12 08:06:49;;;;;;;3.15;1.90;;;;;;;21.86;64.21;98265.16;1840970;77;20987;-64
2022/06/12 08:09:16;;;;;;;2.40;1.60;;;;;;;21.74;64.34;98263.32;1830006;77;20840;-63
2022/06/12 08:11:45;;;;;;;2.20;1.70;;;;;;;21.66;62.62;98258.88;1837359;77;20919;-61
2022/06/12 08:14:13;;;;;;;2.00;1.80;;;;;;;21.58;64.80;98263.14;1838558;77;20918;-64
2022/06/12 08:16:41;;;;;;;3.77;1.92;;;;;;;21.58;64.49;98259.85;1849108;77;21115;-60
2022/06/12 08:20:24;;;;;;;4.95;1.77;;;;;;;21.62;62.23;98260.71;1770816;80;20998;-62
2022/06/12 08:21:39;;;;;;;2.12;1.57;;;;;;;21.71;62.35;98255.08;1840056;77;21410;-60
2022/06/12 08:24:06;;;;;;;3.60;1.75;;;;;;;21.91;62.80;98265.45;1834730;77;20916;-61
2022/06/12 08:26:33;;;;;;;2.72;1.47;;;;;;;22.09;61.19;98260.58;1838633;77;20873;-64
2022/06/12 08:29:06;;;;;;;2.58;1.87;;;;;;;22.23;61.76;98265.55;1848449;77;21103;-61
2022/06/12 08:31:49;;;;;;;2.60;2.00;;;;;;;22.23;61.38;98271.02;1845201;77;20993;-59
2022/06/12 08:34:29;;;;;;;1.72;1.62;;;;;;;22.10;61.46;98265.47;1845836;77;20825;-62
2022/06/12 08:36:59;;;;;;;2.40;2.08;;;;;;;21.86;61.85;98276.66;1845503;77;20939;-62
2022/06/12 08:39:25;;;;;;;3.08;1.80;;;;;;;21.72;61.90;98262.09;1831386;77;20993;-58
2022/06/12 08:42:01;;;;;;;3.72;2.35;;;;;;;21.81;62.86;98263.48;1840669;77;21227;-62
2022/06/12 08:44:36;;;;;;;2.17;1.77;;;;;;;22.07;62.77;98263.48;1848731;77;20915;-58
2022/06/12 08:47:13;;;;;;;6.75;1.65;;;;;;;22.35;63.05;98266.77;1840402;77;21415;-64
2022/06/12 08:49:58;;;;;;;4.08;1.80;;;;;;;22.53;58.60;98262.44;1766808;80;20944;-60
2022/06/12 08:52:36;;;;;;;1.70;1.50;;;;;;;22.61;57.96;98260.06;1804872;79;20914;-60
2022/06/12 08:55:14;;;;;;;3.65;1.92;;;;;;;22.71;60.38;98259.47;1767682;79;21125;-60
2022/06/12 08:57:49;;;;;;;2.33;1.70;;;;;;;22.90;58.55;98268.98;1800423;79;20853;-58
2022/06/12 09:00:22;;;;;;;1.82;1.50;;;;;;;23.08;56.39;98265.97;1770941;80;21027;-59
2022/06/12 09:02:49;;;;;;;1.92;1.70;;;;;;;23.15;55.98;98256.52;1792924;79;20995;-59
2022/06/12 09:05:21;;;;;;;4.22;1.70;;;;;;;23.14;56.79;98267.25;1771347;80;20868;-64
2022/06/12 09:08:00;;;;;;;3.20;1.70;;;;;;;23.21;56.84;98260.31;1798914;79;21501;-60
2022/06/12 09:10:50;;;;;;;4.03;1.72;;;;;;;23.23;55.30;98252.53;1801951;78;20924;-62
2022/06/12 09:13:31;;;;;;;3.80;1.85;;;;;;;23.05;55.93;98258.52;1799189;79;20953;-59
2022/06/12 09:16:36;;;;;;;1.92;1.70;;;;;;;22.96;56.06;98254.45;1777037;80;20896;-62
2022/06/12 09:19:30;;;;;;;3.30;1.57;;;;;;;22.97;54.34;98256.81;1799471;79;20869;-59
2022/06/12 09:22:20;;;;;;;2.25;1.60;;;;;;;22.93;56.30;98253.24;1792348;79;21970;-61
2022/06/12 09:25:17;;;;;;;1.87;1.40;;;;;;;23.09;58.32;98247.06;1828714;77;20883;-61
2022/06/12 09:28:05;;;;;;;2.95;1.72;;;;;;;23.32;54.83;98247.63;1831661;77;21379;-64
2022/06/12 09:30:43;;;;;;;4.15;1.80;;;;;;;23.48;53.84;98245.55;1848069;77;20926;-61
2022/06/12 09:33:25;;;;;;;1.67;1.40;;;;;;;23.59;53.44;98241.02;1831252;77;21501;-60
2022/06/12 09:36:06;;;;;;;3.80;1.30;;;;;;;23.58;53.03;98246.27;1830740;77;21064;-60
2022/06/12 09:38:39;;;;;;;1.85;1.30;;;;;;;23.48;51.78;98245.55;1851601;77;20872;-61
2022/06/12 09:41:14;;;;;;;1.50;1.40;;;;;;;23.45;51.21;98251.75;1844256;77;20851;-61
2022/06/12 09:44:01;;;;;;;4.83;1.80;;;;;;;23.42;51.95;98249.74;1836359;77;20999;-60
2022/06/12 09:46:56;;;;;;;3.98;1.72;;;;;;;23.41;53.07;98248.95;1842148;77;20940;-60
2022/06/12 09:49:43;;;;;;;1.85;1.37;;;;;;;23.45;53.05;98246.28;1844651;77;21239;-64
2022/06/12 09:52:34;;;;;;;3.72;1.40;;;;;;;23.50;52.60;98245.40;1842971;77;21491;-64
2022/06/12 09:55:09;;;;;;;2.00;1.42;;;;;;;23.63;51.20;98245.38;1776836;80;20983;-60
2022/06/12 09:57:54;;;;;;;;;;;;;;;23.70;51.00;98236.48;1779093;80;20873;-61
2022/06/12 10:00:40;;;;;;;3.00;1.30;;;;;;;23.79;50.05;98236.41;1803151;79;20102;-59
2022/06/12 10:03:21;;;;;;;1.17;1.05;;;;;;;23.83;49.71;98240.58;1768405;80;21137;-63
2022/06/12 10:06:03;;;;;;;1.70;1.25;;;;;;;23.93;49.65;98241.88;1798278;79;21382;-59
2022/06/12 10:08:55;;;;;;;1.70;1.27;;;;;;;23.99;50.07;98234.33;1802290;79;20891;-59
2022/06/12 10:11:29;;;;;;;1.30;1.20;;;;;;;24.16;48.64;98239.27;1802282;78;20968;-59
2022/06/12 10:14:23;;;;;;;1.95;1.20;;;;;;;24.16;48.81;98235.17;1808423;78;20911;-59
2022/06/12 10:16:58;;;;;;;1.62;1.27;;;;;;;24.03;47.25;98220.68;1777345;80;21079;-59
2022/06/12 10:19:33;;;;;;;2.40;1.42;;;;;;;23.97;50.00;98228.45;1804330;79;20853;-60
2022/06/12 10:22:05;;;;;;;2.12;1.30;;;;;;;24.09;49.25;98233.72;1771925;80;20944;-61
2022/06/12 10:24:32;;;;;;;2.02;1.50;;;;;;;24.19;48.73;98225.42;1800659;79;21514;-59
2022/06/12 10:27:05;;;;;;;1.72;1.10;;;;;;;24.25;50.37;98230.76;1796111;78;20980;-60
2022/06/12 10:29:50;;;;;;;3.45;1.15;;;;;;;24.34;47.99;98221.09;1766329;79;21126;-63
2022/06/12 10:32:21;;;;;;;2.08;1.30;;;;;;;24.42;49.82;98222.73;1802019;79;21333;-63
2022/06/12 10:34:47;;;;;;;1.22;1.10;;;;;;;24.53;48.16;98216.58;1798002;79;20956;-64
2022/06/12 10:37:28;;;;;;;2.12;1.50;;;;;;;24.51;48.23;98223.81;1806859;78;20897;-58
2022/06/12 10:40:16;;;;;;;2.40;1.20;;;;;;;24.46;45.81;98222.20;1763131;80;20934;-59
2022/06/12 10:42:59;;;;;;;2.22;1.50;;;;;;;24.37;47.10;98221.72;1791353;79;22020;-64
2022/06/12 10:45:30;;;;;;;3.00;1.62;;;;;;;24.44;47.93;98219.05;1800378;79;20903;-63
2022/06/12 10:48:00;;;;;;;2.52;1.60;;;;;;;24.59;48.45;98208.25;1798914;79;20963;-62
2022/06/12 10:50:33;;;;;;;3.00;1.30;;;;;;;24.64;47.42;98210.04;1793942;79;20927;-60
2022/06/12 10:53:16;;;;;;;1.75;1.30;;;;;;;24.65;47.50;98214.37;1771974;80;21545;-61
2022/06/12 10:56:00;;;;;;;2.52;1.30;;;;;;;24.64;44.98;98209.25;1804536;79;21073;-60
2022/06/12 10:58:53;;;;;;;1.87;1.10;;;;;;;24.46;44.46;98211.25;1764889;80;20857;-62
2022/06/12 11:02:04;;;;;;;1.45;1.02;;;;;;;24.27;46.78;98208.70;1770809;80;20896;-62
2022/06/12 11:05:01;;;;;;;6.83;1.12;;;;;;;24.31;46.32;98204.61;1775059;80;21535;-59
2022/06/12 11:08:00;;;;;;;1.50;0.93;;;;;;;24.35;46.03;98207.59;1781760;80;20983;-63
2022/06/12 11:11:04;;;;;;;4.92;1.30;;;;;;;24.33;46.48;98200.95;1769181;80;21123;-61
2022/06/12 11:13:54;;;;;;;1.62;1.00;;;;;;;24.39;47.52;98198.86;1776882;80;20936;-60
2022/06/12 11:17:07;;;;;;;1.00;0.90;;;;;;;24.55;47.59;98208.77;1761826;80;21001;-61
2022/06/12 11:19:49;;;;;;;6.92;1.15;;;;;;;24.66;47.01;98200.09;1792564;79;21399;-60
2022/06/12 11:22:42;;;;;;;1.20;1.00;;;;;;;24.72;45.75;98198.58;1757500;80;20947;-61
2022/06/12 11:25:30;;;;;;;0.85;0.80;;;;;;;24.81;45.58;98199.07;1771547;80;21135;-62
2022/06/12 11:28:18;;;;;;;1.70;1.00;;;;;;;24.85;44.07;98195.20;1848998;77;21019;-63
2022/06/12 11:30:59;;;;;;;2.25;0.98;;;;;;;24.85;45.96;98194.41;1844344;77;20904;-62
2022/06/12 11:33:53;;;;;;;1.62;0.82;;;;;;;25.05;44.07;98187.53;1773262;80;20927;-64
2022/06/12 11:36:31;;;;;;;2.60;1.15;;;;;;;25.32;44.18;98199.84;1804753;79;21402;-62
2022/06/12 11:39:09;;;;;;;1.65;1.07;;;;;;;25.55;40.99;98190.05;1777324;80;21528;-62
2022/06/12 11:42:02;;;;;;;1.45;1.20;;;;;;;25.50;41.86;98187.09;1800094;79;21383;-58
2022/06/12 11:44:57;;;;;;;1.17;0.90;;;;;;;25.50;42.51;98189.83;1805166;79;21458;-60
2022/06/12 11:47:46;;;;;;;1.45;0.80;;;;;;;25.68;43.44;98185.22;1773006;80;20888;-63
2022/06/12 11:50:26;;;;;;;2.02;1.10;;;;;;;25.88;43.72;98193.14;1767020;80;20896;-63
2022/06/12 11:53:10;;;;;;;1.62;1.10;;;;;;;25.90;42.55;98183.94;1843531;77;21367;-59
2022/06/12 11:55:54;;;;;;;1.80;1.10;;;;;;;25.83;42.09;98188.81;1842512;77;20869;-63
2022/06/12 11:58:57;;;;;;;2.97;1.23;;;;;;;25.88;41.85;98184.91;1834953;77;20952;-59
2022/06/12 12:01:46;;;;;;;1.10;0.90;;;;;;;26.08;41.95;98181.45;1769857;80;20928;-64
2022/06/12 12:04:35;;;;;;;2.25;0.88;;;;;;;26.23;39.99;98168.59;1809065;79;20881;-58
2022/06/12 12:07:27;;;;;;;2.92;0.95;;;;;;;26.25;38.88;98166.23;1763353;79;21784;-60
2022/06/12 12:10:39;;;;;;;2.55;0.90;;;;;;;26.16;41.23;98171.31;1827823;77;21044;-58
2022/06/12 12:13:14;;;;;;;2.25;0.80;;;;;;;26.65;40.78;98170.03;1825041;77;21387;-61
2022/06/12 12:15:54;;;;;;;3.20;1.00;;;;;;;26.65;40.78;98170.03;1832093;77;21000;-60
2022/06/12 12:18:41;;;;;;;1.17;0.90;;;;;;;26.77;39.60;98164.77;1833117;77;21513;-59
2022/06/12 12:21:33;;;;;;;1.15;0.88;;;;;;;26.86;40.99;98165.95;1820857;77;21210;-63
2022/06/12 12:24:01;;;;;;;1.90;0.90;;;;;;;27.17;39.78;98166.30;1832284;77;21046;-62